createdAt,value
2018-11-25T00:00:32.389Z,3.00
2018-11-25T00:03:00.638Z,2.90
2018-11-25T00:05:28.917Z,3.00
2018-11-25T00:07:57.192Z,2.90
2018-11-25T00:10:25.538Z,3.00
2018-11-25T00:12:53.890Z,2.90
2018-11-25T00:15:22.180Z,2.90
2018-11-25T00:17:50.434Z,2.90
2018-11-25T00:20:18.731Z,2.90
2018-11-25T00:22:46.989Z,2.90
2018-11-25T00:25:15.554Z,2.90
2018-11-25T00:27:43.828Z,2.90
2018-11-25T00:30:13.098Z,2.90
2018-11-25T00:32:41.536Z,2.90
2018-11-25T00:35:10.925Z,2.90
2018-11-25T00:37:39.215Z,2.90
2018-11-25T00:40:09.444Z,2.90
2018-11-25T00:42:37.736Z,2.90
2018-11-25T00:45:11.317Z,2.90
2018-11-25T00:47:39.693Z,2.90
2018-11-25T00:50:14.757Z,2.90
2018-11-25T00:52:43.018Z,2.90
2018-11-25T00:55:12.477Z,2.80
2018-11-25T00:57:40.744Z,2.80
2018-11-25T01:00:13.926Z,2.80
2018-11-25T01:02:42.188Z,2.80
2018-11-25T01:05:10.870Z,2.80
2018-11-25T01:07:39.146Z,2.80
2018-11-25T01:10:13.075Z,2.80
2018-11-25T01:12:41.349Z,2.70
2018-11-25T01:15:15.416Z,2.70
2018-11-25T01:17:43.876Z,2.70
2018-11-25T01:20:16.282Z,2.70
2018-11-25T01:22:44.584Z,2.70
2018-11-25T01:25:12.951Z,2.70
2018-11-25T01:27:41.295Z,2.70
2018-11-25T01:30:13.674Z,2.70
2018-11-25T01:32:41.946Z,2.60
2018-11-25T01:35:11.655Z,2.60
2018-11-25T01:37:40.064Z,2.60
2018-11-25T01:40:13.697Z,2.60
2018-11-25T01:42:42.046Z,2.60
2018-11-25T01:45:12.584Z,2.60
2018-11-25T01:47:40.877Z,2.60
2018-11-25T01:50:12.367Z,2.60
2018-11-25T01:52:40.642Z,2.60
2018-11-25T01:55:11.174Z,2.60
2018-11-25T01:57:39.467Z,2.60
2018-11-25T02:00:16.801Z,2.60
2018-11-25T02:02:46.933Z,2.50
2018-11-25T02:05:15.260Z,2.60
2018-11-25T02:07:43.512Z,2.60
2018-11-25T02:10:15.794Z,2.50
2018-11-25T02:12:44.137Z,2.50
2018-11-25T02:15:13.478Z,2.50
2018-11-25T02:17:41.946Z,2.50
2018-11-25T02:20:17.502Z,2.50
2018-11-25T02:22:45.743Z,2.50
2018-11-25T02:25:14.114Z,2.50
2018-11-25T02:27:42.351Z,2.50
2018-11-25T02:30:12.884Z,2.50
2018-11-25T02:32:41.142Z,2.40
2018-11-25T02:35:10.590Z,2.40
2018-11-25T02:37:38.954Z,2.50
2018-11-25T02:40:09.190Z,2.50
2018-11-25T02:42:37.468Z,2.50
2018-11-25T02:45:08.688Z,2.50
2018-11-25T02:47:36.983Z,2.40
2018-11-25T02:50:07.036Z,2.40
2018-11-25T02:52:35.382Z,2.40
2018-11-25T02:55:03.861Z,2.40
2018-11-25T02:57:32.161Z,2.40
2018-11-25T03:00:00.521Z,2.40
2018-11-25T03:02:28.786Z,2.40
2018-11-25T03:04:57.080Z,2.50
2018-11-25T03:07:25.510Z,2.40
2018-11-25T03:09:53.822Z,2.40
2018-11-25T03:12:22.211Z,2.50
2018-11-25T03:14:50.468Z,2.60
2018-11-25T03:17:18.827Z,2.60
2018-11-25T03:19:47.079Z,2.60
2018-11-25T03:22:15.377Z,2.60
2018-11-25T03:24:43.713Z,2.40
2018-11-25T03:27:11.948Z,2.50
2018-11-25T03:29:40.217Z,2.50
2018-11-25T03:32:08.462Z,2.50
2018-11-25T03:34:36.687Z,2.50
2018-11-25T03:37:05.324Z,2.40
2018-11-25T03:39:33.560Z,2.40
2018-11-25T03:42:01.849Z,2.20
2018-11-25T03:44:30.125Z,2.20
2018-11-25T03:46:58.390Z,2.20
2018-11-25T03:49:26.790Z,2.30
2018-11-25T03:51:55.061Z,2.30
2018-11-25T03:54:23.380Z,2.30
2018-11-25T03:56:51.603Z,2.20
2018-11-25T03:59:19.838Z,2.10
2018-11-25T04:01:48.149Z,2.00
2018-11-25T04:04:16.454Z,2.10
2018-11-25T04:06:44.759Z,2.10
2018-11-25T04:09:13.046Z,2.10
2018-11-25T04:11:41.354Z,2.00
2018-11-25T04:14:09.686Z,2.00
2018-11-25T04:16:37.978Z,2.20
2018-11-25T04:19:06.428Z,2.20
2018-11-25T04:21:34.763Z,2.20
2018-11-25T04:24:03.116Z,2.10
2018-11-25T04:26:31.464Z,2.10
2018-11-25T04:28:59.703Z,2.00
2018-11-25T04:31:27.952Z,1.90
2018-11-25T04:33:56.198Z,1.90
2018-11-25T04:36:24.533Z,1.90
2018-11-25T04:38:52.801Z,1.80
2018-11-25T04:41:21.045Z,2.00
2018-11-25T04:43:49.362Z,2.00
2018-11-25T04:46:17.672Z,1.90
2018-11-25T04:48:46.007Z,1.90
2018-11-25T04:51:14.216Z,1.80
2018-11-25T04:53:42.543Z,1.80
2018-11-25T04:56:10.778Z,1.70
2018-11-25T04:58:39.093Z,1.70
2018-11-25T05:01:07.371Z,1.70
2018-11-25T05:03:35.659Z,1.70
2018-11-25T05:06:03.923Z,1.70
2018-11-25T05:08:32.227Z,1.60
2018-11-25T05:11:00.519Z,1.70
2018-11-25T05:13:28.794Z,1.70
2018-11-25T05:15:57.132Z,1.70
2018-11-25T05:18:25.443Z,1.70
2018-11-25T05:20:53.763Z,1.70
2018-11-25T05:23:21.983Z,1.70
2018-11-25T05:25:50.224Z,1.70
2018-11-25T05:28:18.518Z,1.70
2018-11-25T05:30:46.765Z,1.60
2018-11-25T05:33:15.039Z,1.60
2018-11-25T05:35:43.350Z,1.70
2018-11-25T05:38:11.542Z,1.70
2018-11-25T05:40:39.806Z,1.70
2018-11-25T05:43:08.098Z,1.70
2018-11-25T05:45:36.412Z,1.70
2018-11-25T05:48:04.727Z,1.70
2018-11-25T05:50:33.027Z,1.70
2018-11-25T05:53:01.292Z,1.70
2018-11-25T05:55:29.597Z,1.70
2018-11-25T05:57:57.828Z,1.70
2018-11-25T06:00:29.031Z,1.70
2018-11-25T06:02:57.282Z,1.70
2018-11-25T06:05:25.620Z,1.70
2018-11-25T06:07:53.961Z,1.90
2018-11-25T06:10:22.268Z,1.80
2018-11-25T06:12:50.842Z,1.80
2018-11-25T06:15:19.145Z,1.70
2018-11-25T06:17:47.484Z,1.70
2018-11-25T06:20:16.626Z,1.70
2018-11-25T06:22:45.507Z,1.70
2018-11-25T06:25:18.725Z,1.70
2018-11-25T06:27:48.017Z,1.70
2018-11-25T06:30:17.195Z,1.70
2018-11-25T06:32:45.566Z,1.70
2018-11-25T06:35:20.379Z,1.80
2018-11-25T06:37:48.706Z,1.70
2018-11-25T06:40:18.881Z,1.70
2018-11-25T06:42:47.211Z,1.80
2018-11-25T06:45:20.545Z,1.80
2018-11-25T06:47:48.913Z,1.80
2018-11-25T06:50:17.141Z,1.80
2018-11-25T06:52:45.407Z,1.70
2018-11-25T06:55:13.761Z,1.70
2018-11-25T06:57:42.022Z,1.70
2018-11-25T07:00:26.177Z,1.70
2018-11-25T07:02:54.606Z,1.80
2018-11-25T07:05:22.915Z,1.70
2018-11-25T07:07:51.295Z,1.70
2018-11-25T07:10:21.267Z,1.70
2018-11-25T07:12:50.757Z,1.70
2018-11-25T07:15:19.238Z,1.70
2018-11-25T07:17:47.579Z,1.80
2018-11-25T07:20:16.714Z,1.70
2018-11-25T07:22:45.020Z,1.90
2018-11-25T07:25:15.227Z,1.90
2018-11-25T07:27:43.539Z,1.70
2018-11-25T07:30:27.516Z,1.80
2018-11-25T07:32:56.041Z,1.80
2018-11-25T07:35:27.254Z,1.90
2018-11-25T07:37:55.662Z,1.80
2018-11-25T07:40:24.707Z,1.70
2018-11-25T07:42:53.103Z,1.70
2018-11-25T07:45:30.060Z,1.70
2018-11-25T07:47:51.704Z,1.60
2018-11-25T07:50:20.049Z,1.60
2018-11-25T07:52:48.769Z,1.60
2018-11-25T07:55:21.282Z,1.70
2018-11-25T07:57:50.475Z,1.70
2018-11-25T08:00:21.720Z,1.70
2018-11-25T08:02:49.953Z,1.60
2018-11-25T08:05:20.515Z,1.70
2018-11-25T08:07:48.845Z,1.60
2018-11-25T08:10:17.216Z,1.60
2018-11-25T08:12:46.104Z,1.70
2018-11-25T08:15:15.337Z,1.70
2018-11-25T08:17:43.716Z,1.80
2018-11-25T08:20:17.615Z,1.90
2018-11-25T08:22:45.992Z,1.90
2018-11-25T08:25:15.507Z,2.00
2018-11-25T08:27:43.806Z,2.00
2018-11-25T08:30:13.334Z,2.00
2018-11-25T08:32:41.681Z,2.10
2018-11-25T08:35:10.442Z,2.20
2018-11-25T08:37:38.795Z,2.40
2018-11-25T08:40:10.640Z,2.60
2018-11-25T08:42:38.971Z,2.60
2018-11-25T08:45:08.523Z,2.60
2018-11-25T08:47:36.827Z,2.60
2018-11-25T08:50:10.167Z,2.60
2018-11-25T08:52:38.763Z,2.80
2018-11-25T08:55:09.523Z,2.80
2018-11-25T08:57:37.795Z,3.00
2018-11-25T09:00:10.788Z,3.10
2018-11-25T09:02:39.083Z,3.20
2018-11-25T09:05:08.342Z,3.10
2018-11-25T09:07:36.640Z,3.10
2018-11-25T09:10:07.438Z,3.20
2018-11-25T09:12:35.724Z,3.20
2018-11-25T09:15:04.297Z,3.20
2018-11-25T09:17:32.661Z,3.30
2018-11-25T09:20:00.922Z,3.30
2018-11-25T09:22:29.264Z,3.40
2018-11-25T09:24:57.499Z,3.40
2018-11-25T09:27:25.875Z,3.60
2018-11-25T09:29:54.248Z,3.60
2018-11-25T09:32:23.079Z,3.70
2018-11-25T09:34:50.889Z,3.80
2018-11-25T09:37:19.130Z,4.00
2018-11-25T09:39:47.620Z,4.00
2018-11-25T09:42:16.096Z,4.10
2018-11-25T09:44:44.474Z,4.10
2018-11-25T09:47:12.700Z,4.20
2018-11-25T09:49:40.992Z,4.30
2018-11-25T09:52:09.305Z,4.30
2018-11-25T09:54:37.510Z,4.40
2018-11-25T09:57:05.818Z,4.50
2018-11-25T09:59:34.119Z,4.60
2018-11-25T10:02:02.566Z,4.70
2018-11-25T10:04:30.917Z,4.80
2018-11-25T10:06:59.199Z,4.80
2018-11-25T10:09:27.473Z,4.90
2018-11-25T10:11:55.851Z,5.00
2018-11-25T10:14:24.194Z,5.00
2018-11-25T10:16:52.534Z,5.10
2018-11-25T10:19:20.811Z,5.10
2018-11-25T10:21:49.150Z,5.20
2018-11-25T10:24:17.460Z,5.30
2018-11-25T10:26:45.773Z,5.30
2018-11-25T10:29:14.061Z,5.40
2018-11-25T10:31:42.366Z,5.50
2018-11-25T10:34:10.696Z,5.50
2018-11-25T10:36:38.948Z,5.50
2018-11-25T10:39:08.417Z,5.60
2018-11-25T10:41:36.878Z,5.60
2018-11-25T10:44:05.521Z,5.70
2018-11-25T10:46:33.981Z,5.70
2018-11-25T10:49:02.263Z,5.80
2018-11-25T10:51:30.675Z,5.90
2018-11-25T10:53:59.103Z,6.00
2018-11-25T10:56:27.424Z,6.10
2018-11-25T10:58:55.730Z,6.10
2018-11-25T11:02:26.980Z,6.20
2018-11-25T11:05:00.711Z,6.30
2018-11-25T11:07:34.498Z,6.40
2018-11-25T11:10:02.735Z,6.40
2018-11-25T11:12:31.084Z,6.40
2018-11-25T11:14:59.457Z,6.40
2018-11-25T11:17:27.818Z,6.50
2018-11-25T11:19:56.077Z,6.50
2018-11-25T11:22:24.373Z,6.60
2018-11-25T11:24:52.726Z,6.60
2018-11-25T11:27:21.011Z,6.60
2018-11-25T11:29:49.287Z,6.60
2018-11-25T11:32:17.646Z,6.70
2018-11-25T11:34:45.994Z,6.80
2018-11-25T11:37:14.258Z,6.90
2018-11-25T11:39:42.550Z,6.90
2018-11-25T11:42:10.927Z,7.00
2018-11-25T11:44:39.264Z,7.00
2018-11-25T11:47:07.573Z,7.00
2018-11-25T11:49:35.813Z,6.90
2018-11-25T11:52:04.086Z,7.00
2018-11-25T11:54:32.478Z,7.00
2018-11-25T11:57:00.773Z,7.00
2018-11-25T11:59:29.046Z,7.10
2018-11-25T12:01:57.286Z,7.00
2018-11-25T12:04:25.646Z,7.00
2018-11-25T12:06:53.987Z,7.00
2018-11-25T12:09:22.291Z,7.10
2018-11-25T12:11:50.572Z,7.00
2018-11-25T12:14:18.934Z,7.10
2018-11-25T12:16:47.203Z,7.10
2018-11-25T12:19:15.572Z,7.00
2018-11-25T12:21:44.035Z,6.90
2018-11-25T12:24:12.304Z,6.90
2018-11-25T12:26:40.572Z,6.90
2018-11-25T12:29:08.924Z,6.80
2018-11-25T12:31:37.222Z,6.90
2018-11-25T12:34:05.556Z,6.90
2018-11-25T12:36:33.843Z,7.00
2018-11-25T12:39:02.123Z,7.00
2018-11-25T12:41:30.527Z,7.10
2018-11-25T12:43:58.795Z,7.10
2018-11-25T12:46:27.098Z,7.10
2018-11-25T12:48:55.449Z,7.10
2018-11-25T12:51:23.762Z,7.00
2018-11-25T12:53:52.166Z,7.00
2018-11-25T12:56:20.445Z,6.90
2018-11-25T12:58:48.773Z,7.00
2018-11-25T13:01:17.119Z,7.10
2018-11-25T13:03:45.356Z,7.10
2018-11-25T13:06:13.683Z,7.30
2018-11-25T13:08:41.922Z,7.60
2018-11-25T13:11:10.290Z,7.80
2018-11-25T13:13:38.551Z,8.00
2018-11-25T13:16:06.849Z,8.00
2018-11-25T13:18:35.798Z,7.90
2018-11-25T13:21:03.568Z,7.90
2018-11-25T13:23:31.903Z,7.60
2018-11-25T13:26:00.191Z,7.40
2018-11-25T13:28:28.427Z,7.20
2018-11-25T13:30:56.664Z,7.10
2018-11-25T13:33:25.084Z,6.90
2018-11-25T13:35:53.381Z,6.80
2018-11-25T13:38:21.689Z,6.70
2018-11-25T13:40:49.975Z,6.60
2018-11-25T13:43:18.252Z,6.60
2018-11-25T13:45:46.618Z,6.40
2018-11-25T13:48:14.876Z,6.30
2018-11-25T13:50:43.138Z,6.30
2018-11-25T13:53:11.436Z,6.20
2018-11-25T13:55:39.725Z,6.20
2018-11-25T13:58:08.010Z,6.20
2018-11-25T14:03:24.762Z,6.20
2018-11-25T14:05:53.688Z,6.10
2018-11-25T14:08:21.414Z,6.10
2018-11-25T14:10:54.229Z,6.10
2018-11-25T14:13:22.565Z,6.10
2018-11-25T14:15:50.854Z,6.10
2018-11-25T14:18:19.146Z,6.10
2018-11-25T14:20:47.483Z,6.10
2018-11-25T14:23:15.768Z,6.10
2018-11-25T14:25:44.160Z,6.10
2018-11-25T14:28:13.861Z,6.20
2018-11-25T14:30:42.232Z,6.20
2018-11-25T14:33:10.715Z,6.20
2018-11-25T14:35:39.006Z,6.20
2018-11-25T14:38:07.952Z,6.20
2018-11-25T14:40:37.301Z,6.10
2018-11-25T14:43:06.451Z,6.00
2018-11-25T14:45:34.808Z,5.90
2018-11-25T14:48:03.132Z,5.90
2018-11-25T14:50:31.408Z,5.90
2018-11-25T14:52:59.886Z,5.90
2018-11-25T14:55:28.164Z,5.90
2018-11-25T14:57:56.414Z,5.90
2018-11-25T15:00:24.800Z,5.70
2018-11-25T15:02:56.734Z,5.60
2018-11-25T15:05:46.917Z,5.60
2018-11-25T15:08:17.140Z,5.40
2018-11-25T15:10:45.609Z,5.30
2018-11-25T15:13:13.892Z,5.40
2018-11-25T15:15:42.248Z,5.40
2018-11-25T15:18:10.573Z,5.30
2018-11-25T15:20:38.885Z,5.20
2018-11-25T15:23:09.742Z,5.00
2018-11-25T15:25:40.426Z,4.90
2018-11-25T15:28:08.955Z,4.80
2018-11-25T15:30:37.317Z,4.80
2018-11-25T15:33:05.643Z,4.80
2018-11-25T15:35:33.993Z,4.70
2018-11-25T15:38:02.389Z,4.70
2018-11-25T15:40:32.097Z,4.60
2018-11-25T15:43:00.493Z,4.50
2018-11-25T15:45:28.771Z,4.50
2018-11-25T15:48:03.035Z,4.50
2018-11-25T15:50:31.984Z,4.50
2018-11-25T15:53:00.335Z,4.50
2018-11-25T15:55:28.581Z,4.60
2018-11-25T15:57:56.932Z,4.60
2018-11-25T16:00:25.596Z,4.50
2018-11-25T16:02:54.136Z,4.50
2018-11-25T16:05:32.957Z,4.40
2018-11-25T16:08:01.178Z,4.50
2018-11-25T16:10:29.518Z,4.60
2018-11-25T16:12:57.889Z,4.50
2018-11-25T16:15:27.507Z,4.60
2018-11-25T16:17:55.912Z,4.70
2018-11-25T16:20:25.444Z,4.60
2018-11-25T16:23:00.055Z,4.60
2018-11-25T16:25:33.153Z,4.70
2018-11-25T16:28:08.738Z,4.60
2018-11-25T16:30:37.087Z,4.60
2018-11-25T16:33:05.421Z,4.60
2018-11-25T16:35:33.756Z,4.70
2018-11-25T16:38:02.139Z,4.60
2018-11-25T16:40:30.406Z,4.60
2018-11-25T16:42:58.756Z,4.60
2018-11-25T16:45:27.485Z,4.70
2018-11-25T16:47:55.819Z,4.60
2018-11-25T16:50:25.411Z,4.60
2018-11-25T16:52:53.056Z,4.50
2018-11-25T16:55:21.688Z,4.50
2018-11-25T16:57:50.061Z,4.40
2018-11-25T17:00:19.282Z,4.30
2018-11-25T17:02:47.593Z,4.20
2018-11-25T17:05:17.403Z,4.20
2018-11-25T17:07:46.787Z,4.20
2018-11-25T17:10:15.080Z,4.10
2018-11-25T17:12:43.397Z,4.10
2018-11-25T17:15:17.337Z,4.10
2018-11-25T17:17:45.847Z,4.10
2018-11-25T17:20:14.171Z,4.00
2018-11-25T17:22:46.242Z,4.00
2018-11-25T17:25:14.880Z,4.00
2018-11-25T17:27:43.877Z,4.00
2018-11-25T17:30:14.384Z,4.00
2018-11-25T17:32:44.052Z,4.00
2018-11-25T17:35:13.972Z,4.00
2018-11-25T17:37:42.363Z,3.90
2018-11-25T17:40:10.946Z,4.00
2018-11-25T17:42:42.654Z,4.00
2018-11-25T17:45:12.039Z,4.00
2018-11-25T17:47:40.476Z,4.00
2018-11-25T17:50:27.618Z,4.20
2018-11-25T17:52:56.042Z,4.20
2018-11-25T17:55:26.185Z,4.20
2018-11-25T17:57:55.472Z,4.30
2018-11-25T18:00:39.476Z,4.50
2018-11-25T18:03:29.258Z,4.60
2018-11-25T18:05:58.607Z,4.70
2018-11-25T18:08:26.915Z,4.70
2018-11-25T18:10:55.237Z,4.60
2018-11-25T18:13:25.452Z,4.50
2018-11-25T18:15:55.167Z,4.60
2018-11-25T18:18:27.590Z,4.60
2018-11-25T18:20:57.882Z,4.60
2018-11-25T18:23:27.158Z,4.60
2018-11-25T18:25:55.577Z,4.60
2018-11-25T18:28:23.971Z,4.70
2018-11-25T18:30:52.357Z,4.60
2018-11-25T18:33:20.795Z,4.60
2018-11-25T18:35:49.110Z,4.60
2018-11-25T18:38:17.483Z,4.70
2018-11-25T18:40:46.018Z,5.00
2018-11-25T18:43:14.443Z,5.00
2018-11-25T18:45:42.914Z,5.10
2018-11-25T18:48:12.906Z,5.10
2018-11-25T18:50:41.215Z,5.10
2018-11-25T18:53:10.337Z,5.10
2018-11-25T18:55:37.580Z,5.30
2018-11-25T18:58:06.265Z,5.20
2018-11-25T19:00:39.291Z,5.20
2018-11-25T19:03:07.536Z,5.20
2018-11-25T19:05:35.986Z,5.30
2018-11-25T19:08:04.635Z,5.40
2018-11-25T19:10:33.002Z,5.40
2018-11-25T19:13:01.488Z,5.40
2018-11-25T19:15:30.857Z,5.50
2018-11-25T19:17:59.183Z,5.50
2018-11-25T19:20:29.103Z,5.50
2018-11-25T19:22:58.384Z,5.70
2018-11-25T19:25:26.916Z,5.60
2018-11-25T19:27:56.360Z,5.60
2018-11-25T19:30:26.606Z,5.60
2018-11-25T19:32:53.079Z,5.60
2018-11-25T19:35:22.195Z,5.60
2018-11-25T19:37:51.452Z,5.50
2018-11-25T19:40:23.905Z,5.50
2018-11-25T19:42:52.188Z,5.60
2018-11-25T19:45:21.825Z,5.70
2018-11-25T19:47:50.154Z,5.60
2018-11-25T19:50:22.862Z,5.70
2018-11-25T19:52:51.250Z,5.60
2018-11-25T19:55:19.511Z,5.60
2018-11-25T19:57:47.884Z,5.50
2018-11-25T20:00:17.501Z,5.50
2018-11-25T20:02:45.829Z,5.60
2018-11-25T20:05:14.325Z,5.50
2018-11-25T20:07:43.402Z,5.60
2018-11-25T20:10:12.855Z,5.50
2018-11-25T20:12:44.193Z,5.50
2018-11-25T20:15:14.521Z,5.50
2018-11-25T20:17:43.094Z,5.40
2018-11-25T20:20:12.407Z,5.50
2018-11-25T20:22:40.795Z,5.60
2018-11-25T20:25:11.113Z,5.70
2018-11-25T20:27:43.683Z,5.60
2018-11-25T20:30:14.785Z,5.60
2018-11-25T20:32:48.333Z,5.60
2018-11-25T20:35:17.845Z,5.60
2018-11-25T20:37:51.540Z,5.70
2018-11-25T20:40:19.914Z,5.70
2018-11-25T20:42:48.241Z,5.70
2018-11-25T20:45:23.019Z,5.70
2018-11-25T20:47:51.342Z,5.70
2018-11-25T20:50:19.683Z,5.80
2018-11-25T20:52:53.354Z,5.80
2018-11-25T20:55:21.670Z,5.80
2018-11-25T20:57:49.951Z,5.80
2018-11-25T21:00:20.509Z,5.80
2018-11-25T21:02:48.784Z,5.80
2018-11-25T21:05:17.280Z,5.80
2018-11-25T21:07:45.628Z,5.70
2018-11-25T21:10:15.088Z,5.60
2018-11-25T21:12:44.598Z,5.50
2018-11-25T21:15:12.937Z,5.40
2018-11-25T21:17:41.434Z,5.40
2018-11-25T21:20:11.993Z,5.50
2018-11-25T21:22:40.348Z,5.50
2018-11-25T21:25:10.510Z,5.50
2018-11-25T21:27:38.802Z,5.50
2018-11-25T21:30:11.261Z,5.40
2018-11-25T21:32:40.168Z,5.40
2018-11-25T21:35:09.684Z,5.40
2018-11-25T21:37:38.088Z,5.40
2018-11-25T21:40:17.889Z,5.50
2018-11-25T21:42:46.272Z,5.50
2018-11-25T21:45:15.588Z,5.50
2018-11-25T21:47:44.034Z,5.40
2018-11-25T21:50:13.716Z,5.40
2018-11-25T21:52:41.994Z,5.50
2018-11-25T21:55:12.870Z,5.40
2018-11-25T21:57:41.255Z,5.40
2018-11-25T22:00:13.875Z,5.40
2018-11-25T22:02:42.148Z,5.50
2018-11-25T22:05:11.311Z,5.50
2018-11-25T22:07:41.288Z,5.50
2018-11-25T22:10:10.605Z,5.50
2018-11-25T22:12:39.590Z,5.50
2018-11-25T22:15:11.507Z,5.50
2018-11-25T22:17:43.367Z,5.60
2018-11-25T22:20:12.827Z,5.60
2018-11-25T22:22:41.173Z,5.70
2018-11-25T22:25:12.650Z,5.60
2018-11-25T22:27:40.942Z,5.60
2018-11-25T22:30:13.126Z,5.70
2018-11-25T22:32:41.542Z,5.70
2018-11-25T22:35:11.881Z,5.70
2018-11-25T22:37:40.144Z,5.70
2018-11-25T22:40:11.538Z,5.70
2018-11-25T22:42:40.386Z,5.80
2018-11-25T22:45:12.003Z,5.70
2018-11-25T22:47:40.202Z,5.60
2018-11-25T22:50:12.261Z,5.60
2018-11-25T22:52:40.620Z,5.70
2018-11-25T22:55:14.003Z,5.70
2018-11-25T22:57:42.256Z,5.60
2018-11-25T23:00:27.728Z,5.70
2018-11-25T23:02:56.145Z,5.80
2018-11-25T23:05:35.630Z,5.80
2018-11-25T23:08:04.030Z,5.60
2018-11-25T23:10:32.366Z,5.60
2018-11-25T23:13:00.642Z,5.40
2018-11-25T23:15:32.074Z,5.50
2018-11-25T23:18:00.890Z,5.50
2018-11-25T23:20:29.302Z,5.50
2018-11-25T23:22:57.686Z,5.50
2018-11-25T23:25:26.141Z,5.60
2018-11-25T23:27:54.480Z,5.70
2018-11-25T23:30:22.787Z,5.70
2018-11-25T23:32:51.039Z,5.70
2018-11-25T23:35:22.856Z,5.50
2018-11-25T23:37:51.181Z,5.60
2018-11-25T23:40:19.648Z,5.60
2018-11-25T23:42:47.869Z,5.60
2018-11-25T23:45:16.763Z,5.60
2018-11-25T23:47:45.213Z,5.60
2018-11-25T23:50:14.190Z,5.70
2018-11-25T23:52:43.503Z,5.70
2018-11-25T23:55:13.686Z,5.70
2018-11-25T23:57:41.950Z,5.70
